sensor_id;sensor_type;location;lat;lon;timestamp;pressure;altitude;pressure_sealevel;temperature;humidity
62031;BME280;62035;52.094;5.112;2023-04-30T00:00:47;102500.25;;;9.13;100.00
62031;BME280;62035;52.094;5.112;2023-04-30T00:03:14;102492.09;;;9.43;100.00
62031;BME280;62035;52.094;5.112;2023-04-30T00:05:42;102489.44;;;9.43;100.00
62031;BME280;62035;52.094;5.112;2023-04-30T00:08:09;102490.97;;;9.33;100.00
62031;BME280;62035;52.094;5.112;2023-04-30T00:10:37;102488.28;;;9.47;100.00
62031;BME280;62035;52.094;5.112;2023-04-30T00:13:05;102485.50;;;9.49;100.00
62031;BME280;62035;52.094;5.112;2023-04-30T00:15:32;102485.16;;;9.41;100.00
62031;BME280;62035;52.094;5.112;2023-04-30T00:18:01;102492.31;;;9.53;100.00
62031;BME280;62035;52.094;5.112;2023-04-30T00:20:29;102485.72;;;9.46;100.00
62031;BME280;62035;52.094;5.112;2023-04-30T00:22:57;102468.31;;;9.27;100.00
62031;BME280;62035;52.094;5.112;2023-04-30T00:25:25;102499.88;;;9.19;100.00
62031;BME280;62035;52.094;5.112;2023-04-30T00:27:52;102488.06;;;9.23;100.00
62031;BME280;62035;52.094;5.112;2023-04-30T00:30:20;102487.31;;;9.21;100.00
62031;BME280;62035;52.094;5.112;2023-04-30T00:32:47;102494.19;;;9.11;100.00
62031;BME280;62035;52.094;5.112;2023-04-30T00:35:16;102491.88;;;8.92;100.00
62031;BME280;62035;52.094;5.112;2023-04-30T00:37:44;102501.78;;;9.17;100.00
62031;BME280;62035;52.094;5.112;2023-04-30T00:40:12;102495.63;;;9.29;100.00
62031;BME280;62035;52.094;5.112;2023-04-30T00:42:40;102509.41;;;8.95;100.00
62031;BME280;62035;52.094;5.112;2023-04-30T00:45:08;102509.03;;;8.87;100.00
62031;BME280;62035;52.094;5.112;2023-04-30T00:47:36;102524.88;;;8.88;100.00
62031;BME280;62035;52.094;5.112;2023-04-30T00:50:05;102521.16;;;9.05;100.00
62031;BME280;62035;52.094;5.112;2023-04-30T00:52:36;102514.72;;;9.22;100.00
62031;BME280;62035;52.094;5.112;2023-04-30T00:55:04;102512.31;;;9.05;100.00
62031;BME280;62035;52.094;5.112;2023-04-30T00:57:33;102515.03;;;8.76;100.00
62031;BME280;62035;52.094;5.112;2023-04-30T01:00:02;102519.47;;;8.90;100.00
62031;BME280;62035;52.094;5.112;2023-04-30T01:02:31;102517.94;;;9.00;100.00
62031;BME280;62035;52.094;5.112;2023-04-30T01:04:59;102520.78;;;8.97;100.00
62031;BME280;62035;52.094;5.112;2023-04-30T01:07:26;102530.28;;;8.87;100.00
62031;BME280;62035;52.094;5.112;2023-04-30T01:09:55;102528.88;;;8.67;100.00
62031;BME280;62035;52.094;5.112;2023-04-30T01:12:28;102532.94;;;8.87;100.00
62031;BME280;62035;52.094;5.112;2023-04-30T01:15:07;102526.41;;;8.64;100.00
62031;BME280;62035;52.094;5.112;2023-04-30T01:17:45;102528.88;;;8.67;100.00
62031;BME280;62035;52.094;5.112;2023-04-30T01:20:17;102529.81;;;8.80;100.00
62031;BME280;62035;52.094;5.112;2023-04-30T01:22:49;102528.41;;;8.60;100.00
62031;BME280;62035;52.094;5.112;2023-04-30T01:25:47;102528.88;;;8.67;100.00
62031;BME280;62035;52.094;5.112;2023-04-30T01:28:21;102523.88;;;8.62;100.00
62031;BME280;62035;52.094;5.112;2023-04-30T01:30:50;102523.84;;;8.48;100.00
62031;BME280;62035;52.094;5.112;2023-04-30T01:33:18;102521.97;;;8.50;100.00
62031;BME280;62035;52.094;5.112;2023-04-30T01:36:00;102517.13;;;8.57;100.00
62031;BME280;62035;52.094;5.112;2023-04-30T01:38:49;102524.81;;;8.47;100.00
62031;BME280;62035;52.094;5.112;2023-04-30T01:41:34;102523.09;;;8.46;100.00
62031;BME280;62035;52.094;5.112;2023-04-30T01:44:23;102529.94;;;8.36;100.00
62031;BME280;62035;52.094;5.112;2023-04-30T01:47:06;102530.97;;;8.33;100.00
62031;BME280;62035;52.094;5.112;2023-04-30T01:49:49;102529.94;;;8.36;100.00
62031;BME280;62035;52.094;5.112;2023-04-30T01:52:31;102531.50;;;8.24;100.00
62031;BME280;62035;52.094;5.112;2023-04-30T01:55:09;102527.44;;;8.47;100.00
62031;BME280;62035;52.094;5.112;2023-04-30T01:57:43;102535.69;;;8.43;100.00
62031;BME280;62035;52.094;5.112;2023-04-30T02:00:19;102538.06;;;8.33;100.00
62031;BME280;62035;52.094;5.112;2023-04-30T02:02:47;102530.00;;;8.49;100.00
62031;BME280;62035;52.094;5.112;2023-04-30T02:05:14;102538.44;;;8.41;100.00
62031;BME280;62035;52.094;5.112;2023-04-30T02:07:44;102534.38;;;8.35;100.00
62031;BME280;62035;52.094;5.112;2023-04-30T02:10:17;102534.47;;;8.34;100.00
62031;BME280;62035;52.094;5.112;2023-04-30T02:12:47;102549.97;;;8.26;100.00
62031;BME280;62035;52.094;5.112;2023-04-30T02:15:15;102543.91;;;8.24;100.00
62031;BME280;62035;52.094;5.112;2023-04-30T02:17:44;102542.09;;;8.24;100.00
62031;BME280;62035;52.094;5.112;2023-04-30T02:20:11;102546.56;;;8.24;100.00
62031;BME280;62035;52.094;5.112;2023-04-30T02:22:39;102542.28;;;8.21;100.00
62031;BME280;62035;52.094;5.112;2023-04-30T02:25:08;102545.97;;;8.19;100.00
62031;BME280;62035;52.094;5.112;2023-04-30T02:27:37;102541.22;;;8.10;100.00
62031;BME280;62035;52.094;5.112;2023-04-30T02:30:05;102538.00;;;8.19;100.00
62031;BME280;62035;52.094;5.112;2023-04-30T02:32:34;102537.25;;;8.17;100.00
62031;BME280;62035;52.094;5.112;2023-04-30T02:35:03;102536.66;;;8.12;100.00
62031;BME280;62035;52.094;5.112;2023-04-30T02:37:32;102537.44;;;7.99;100.00
62031;BME280;62035;52.094;5.112;2023-04-30T02:39:59;102528.63;;;8.13;100.00
62031;BME280;62035;52.094;5.112;2023-04-30T02:42:27;102524.25;;;7.98;100.00
62031;BME280;62035;52.094;5.112;2023-04-30T02:44:54;102529.25;;;7.88;100.00
62031;BME280;62035;52.094;5.112;2023-04-30T02:47:22;102524.25;;;8.12;100.00
62031;BME280;62035;52.094;5.112;2023-04-30T02:49:49;102523.31;;;7.99;100.00
62031;BME280;62035;52.094;5.112;2023-04-30T02:52:18;102522.84;;;8.07;100.00
62031;BME280;62035;52.094;5.112;2023-04-30T02:54:46;102523.00;;;8.03;100.00
62031;BME280;62035;52.094;5.112;2023-04-30T02:57:13;102524.25;;;7.98;100.00
62031;BME280;62035;52.094;5.112;2023-04-30T02:59:41;102525.31;;;8.10;100.00
62031;BME280;62035;52.094;5.112;2023-04-30T03:02:10;102523.00;;;8.03;100.00
62031;BME280;62035;52.094;5.112;2023-04-30T03:04:38;102520.53;;;7.86;100.00
62031;BME280;62035;52.094;5.112;2023-04-30T03:07:06;102524.63;;;7.92;100.00
62031;BME280;62035;52.094;5.112;2023-04-30T03:09:35;102522.81;;;7.92;100.00
62031;BME280;62035;52.094;5.112;2023-04-30T03:12:03;102523.00;;;7.89;100.00
62031;BME280;62035;52.094;5.112;2023-04-30T03:14:31;102524.72;;;8.04;100.00
62031;BME280;62035;52.094;5.112;2023-04-30T03:16:59;102536.44;;;7.86;100.00
62031;BME280;62035;52.094;5.112;2023-04-30T03:19:26;102525.28;;;7.95;100.00
62031;BME280;62035;52.094;5.112;2023-04-30T03:21:54;102529.03;;;7.77;100.00
62031;BME280;62035;52.094;5.112;2023-04-30T03:24:21;102524.84;;;7.73;100.00
62031;BME280;62035;52.094;5.112;2023-04-30T03:26:51;102515.47;;;8.12;100.00
62031;BME280;62035;52.094;5.112;2023-04-30T03:29:19;102519.25;;;8.08;100.00
62031;BME280;62035;52.094;5.112;2023-04-30T03:31:46;102520.00;;;8.10;100.00
62031;BME280;62035;52.094;5.112;2023-04-30T03:34:14;102520.00;;;8.10;100.00
62031;BME280;62035;52.094;5.112;2023-04-30T03:36:41;102524.63;;;8.06;100.00
62031;BME280;62035;52.094;5.112;2023-04-30T03:39:09;102514.13;;;8.04;100.00
62031;BME280;62035;52.094;5.112;2023-04-30T03:41:36;102518.03;;;8.13;100.00
62031;BME280;62035;52.094;5.112;2023-04-30T03:44:05;102518.47;;;7.91;100.00
62031;BME280;62035;52.094;5.112;2023-04-30T03:46:40;102516.53;;;7.79;100.00
62031;BME280;62035;52.094;5.112;2023-04-30T03:49:08;102508.91;;;7.89;100.00
62031;BME280;62035;52.094;5.112;2023-04-30T03:51:36;102508.59;;;7.79;100.00
62031;BME280;62035;52.094;5.112;2023-04-30T03:54:07;102505.16;;;7.77;100.00
62031;BME280;62035;52.094;5.112;2023-04-30T03:56:35;102502.94;;;7.85;100.00
62031;BME280;62035;52.094;5.112;2023-04-30T03:59:05;102499.34;;;8.00;100.00
62031;BME280;62035;52.094;5.112;2023-04-30T04:01:33;102507.28;;;8.00;100.00
62031;BME280;62035;52.094;5.112;2023-04-30T04:04:01;102510.44;;;8.07;100.00
62031;BME280;62035;52.094;5.112;2023-04-30T04:06:28;102503.31;;;8.08;100.00
62031;BME280;62035;52.094;5.112;2023-04-30T04:08:56;102497.44;;;8.02;100.00
62031;BME280;62035;52.094;5.112;2023-04-30T04:11:24;102508.09;;;8.31;100.00
62031;BME280;62035;52.094;5.112;2023-04-30T04:13:51;102498.22;;;8.04;100.00
62031;BME280;62035;52.094;5.112;2023-04-30T04:16:20;102505.03;;;7.94;100.00
62031;BME280;62035;52.094;5.112;2023-04-30T04:18:48;102510.97;;;7.84;100.00
62031;BME280;62035;52.094;5.112;2023-04-30T04:21:16;102511.19;;;8.09;100.00
62031;BME280;62035;52.094;5.112;2023-04-30T04:23:43;102510.44;;;8.07;100.00
62031;BME280;62035;52.094;5.112;2023-04-30T04:26:11;102510.81;;;8.15;100.00
62031;BME280;62035;52.094;5.112;2023-04-30T04:28:39;102509.84;;;8.02;100.00
62031;BME280;62035;52.094;5.112;2023-04-30T04:31:07;102513.66;;;8.12;100.00
62031;BME280;62035;52.094;5.112;2023-04-30T04:33:36;102512.06;;;8.24;100.00
62031;BME280;62035;52.094;5.112;2023-04-30T04:36:04;102500.69;;;8.22;100.00
62031;BME280;62035;52.094;5.112;2023-04-30T04:38:32;102517.56;;;8.21;100.00
62031;BME280;62035;52.094;5.112;2023-04-30T04:41:00;102515.09;;;8.18;100.00
62031;BME280;62035;52.094;5.112;2023-04-30T04:43:27;102513.56;;;8.14;100.00
62031;BME280;62035;52.094;5.112;2023-04-30T04:45:55;102513.69;;;8.26;100.00
62031;BME280;62035;52.094;5.112;2023-04-30T04:48:22;102508.38;;;8.26;100.00
62031;BME280;62035;52.094;5.112;2023-04-30T04:50:51;102510.47;;;8.21;100.00
62031;BME280;62035;52.094;5.112;2023-04-30T04:53:19;102498.72;;;8.25;100.00
62031;BME280;62035;52.094;5.112;2023-04-30T04:55:46;102495.63;;;8.33;100.00
62031;BME280;62035;52.094;5.112;2023-04-30T04:58:14;102495.81;;;8.44;100.00
62031;BME280;62035;52.094;5.112;2023-04-30T05:00:41;102496.00;;;8.41;100.00
62031;BME280;62035;52.094;5.112;2023-04-30T05:03:10;102504.16;;;8.52;100.00
62031;BME280;62035;52.094;5.112;2023-04-30T05:05:39;102498.34;;;8.46;100.00
62031;BME280;62035;52.094;5.112;2023-04-30T05:08:08;102506.03;;;8.64;100.00
62031;BME280;62035;52.094;5.112;2023-04-30T05:10:35;102501.59;;;9.33;100.00
62031;BME280;62035;52.094;5.112;2023-04-30T05:13:03;102497.59;;;10.05;100.00
62031;BME280;62035;52.094;5.112;2023-04-30T05:15:30;102489.63;;;10.68;100.00
62031;BME280;62035;52.094;5.112;2023-04-30T05:17:58;102479.50;;;10.74;100.00
62031;BME280;62035;52.094;5.112;2023-04-30T05:20:26;102480.47;;;11.20;100.00
62031;BME280;62035;52.094;5.112;2023-04-30T05:22:53;102478.06;;;11.17;100.00
62031;BME280;62035;52.094;5.112;2023-04-30T05:25:22;102483.88;;;10.62;100.00
62031;BME280;62035;52.094;5.112;2023-04-30T05:27:50;102482.81;;;10.01;100.00
62031;BME280;62035;52.094;5.112;2023-04-30T05:30:17;102496.13;;;9.88;100.00
62031;BME280;62035;52.094;5.112;2023-04-30T05:32:45;102502.31;;;9.62;100.00
62031;BME280;62035;52.094;5.112;2023-04-30T05:35:15;102496.53;;;9.43;100.00
62031;BME280;62035;52.094;5.112;2023-04-30T05:37:43;102500.44;;;9.37;100.00
62031;BME280;62035;52.094;5.112;2023-04-30T05:40:12;102504.56;;;9.28;100.00
62031;BME280;62035;52.094;5.112;2023-04-30T05:42:41;102505.22;;;9.32;100.00
62031;BME280;62035;52.094;5.112;2023-04-30T05:45:09;102512.94;;;9.22;100.00
62031;BME280;62035;52.094;5.112;2023-04-30T05:47:39;102512.22;;;9.33;100.00
62031;BME280;62035;52.094;5.112;2023-04-30T05:50:08;102519.53;;;9.29;100.00
62031;BME280;62035;52.094;5.112;2023-04-30T05:52:36;102523.31;;;9.40;100.00
62031;BME280;62035;52.094;5.112;2023-04-30T05:55:04;102516.78;;;9.97;100.00
62031;BME280;62035;52.094;5.112;2023-04-30T05:57:32;102514.19;;;10.85;100.00
62031;BME280;62035;52.094;5.112;2023-04-30T06:00:03;102506.16;;;10.97;100.00
62031;BME280;62035;52.094;5.112;2023-04-30T06:02:32;102505.78;;;11.39;100.00
62031;BME280;62035;52.094;5.112;2023-04-30T06:04:59;102506.66;;;11.74;100.00
62031;BME280;62035;52.094;5.112;2023-04-30T06:07:28;102502.00;;;12.00;100.00
62031;BME280;62035;52.094;5.112;2023-04-30T06:09:55;102497.00;;;12.30;100.00
62031;BME280;62035;52.094;5.112;2023-04-30T06:12:23;102492.75;;;12.39;100.00
62031;BME280;62035;52.094;5.112;2023-04-30T06:14:51;102495.16;;;12.53;100.00
62031;BME280;62035;52.094;5.112;2023-04-30T06:17:20;102486.91;;;12.45;100.00
62031;BME280;62035;52.094;5.112;2023-04-30T06:19:48;102489.19;;;12.83;100.00
62031;BME280;62035;52.094;5.112;2023-04-30T06:22:16;102492.44;;;12.87;100.00
62031;BME280;62035;52.094;5.112;2023-04-30T06:24:43;102490.00;;;12.95;100.00
62031;BME280;62035;52.094;5.112;2023-04-30T06:27:11;102483.34;;;12.89;100.00
62031;BME280;62035;52.094;5.112;2023-04-30T06:29:39;102495.16;;;12.64;100.00
62031;BME280;62035;52.094;5.112;2023-04-30T06:32:06;102489.56;;;12.56;100.00
62031;BME280;62035;52.094;5.112;2023-04-30T06:34:36;102487.28;;;12.74;100.00
62031;BME280;62035;52.094;5.112;2023-04-30T06:37:04;102493.41;;;12.97;100.00
62031;BME280;62035;52.094;5.112;2023-04-30T06:39:32;102488.50;;;12.37;100.00
62031;BME280;62035;52.094;5.112;2023-04-30T06:41:59;102501.44;;;12.08;100.00
62031;BME280;62035;52.094;5.112;2023-04-30T06:44:27;102499.03;;;12.16;100.00
62031;BME280;62035;52.094;5.112;2023-04-30T06:46:54;102503.13;;;12.09;100.00
62031;BME280;62035;52.094;5.112;2023-04-30T06:49:22;102504.84;;;11.98;100.00
62031;BME280;62035;52.094;5.112;2023-04-30T06:51:51;102502.59;;;11.81;100.00
62031;BME280;62035;52.094;5.112;2023-04-30T06:54:19;102508.53;;;11.85;100.00
62031;BME280;62035;52.094;5.112;2023-04-30T06:56:47;102513.06;;;12.07;100.00
62031;BME280;62035;52.094;5.112;2023-04-30T06:59:15;102517.38;;;12.31;100.00
62031;BME280;62035;52.094;5.112;2023-04-30T07:01:43;102512.16;;;12.30;100.00
62031;BME280;62035;52.094;5.112;2023-04-30T07:04:10;102525.75;;;12.27;100.00
62031;BME280;62035;52.094;5.112;2023-04-30T07:06:38;102520.00;;;12.09;100.00
62031;BME280;62035;52.094;5.112;2023-04-30T07:09:07;102516.06;;;12.37;100.00
62031;BME280;62035;52.094;5.112;2023-04-30T07:11:34;102512.28;;;12.51;100.00
62031;BME280;62035;52.094;5.112;2023-04-30T07:14:02;102512.88;;;12.54;100.00
62031;BME280;62035;52.094;5.112;2023-04-30T07:16:30;102520.25;;;12.84;100.00
62031;BME280;62035;52.094;5.112;2023-04-30T07:18:58;102516.03;;;12.82;100.00
62031;BME280;62035;52.094;5.112;2023-04-30T07:21:26;102507.91;;;12.61;100.00
62031;BME280;62035;52.094;5.112;2023-04-30T07:23:53;102510.66;;;12.93;100.00
62031;BME280;62035;52.094;5.112;2023-04-30T07:26:22;102512.47;;;13.03;100.00
62031;BME280;62035;52.094;5.112;2023-04-30T07:28:51;102511.88;;;13.00;100.00
62031;BME280;62035;52.094;5.112;2023-04-30T07:31:19;102502.13;;;13.21;100.00
62031;BME280;62035;52.094;5.112;2023-04-30T07:33:46;102505.41;;;13.14;100.00
62031;BME280;62035;52.094;5.112;2023-04-30T07:36:15;102509.31;;;12.98;100.00
62031;BME280;62035;52.094;5.112;2023-04-30T07:38:43;102498.56;;;13.32;100.00
62031;BME280;62035;52.094;5.112;2023-04-30T07:41:10;102501.47;;;13.40;100.00
62031;BME280;62035;52.094;5.112;2023-04-30T07:43:41;102496.88;;;13.31;100.00
62031;BME280;62035;52.094;5.112;2023-04-30T07:46:08;102494.38;;;13.18;100.00
62031;BME280;62035;52.094;5.112;2023-04-30T07:48:36;102494.50;;;13.49;100.00
62031;BME280;62035;52.094;5.112;2023-04-30T07:51:04;102497.94;;;13.40;100.00
62031;BME280;62035;52.094;5.112;2023-04-30T07:53:31;102490.72;;;13.51;100.00
62031;BME280;62035;52.094;5.112;2023-04-30T07:55:59;102491.50;;;13.63;100.00
62031;BME280;62035;52.094;5.112;2023-04-30T07:58:27;102490.88;;;13.91;100.00
62031;BME280;62035;52.094;5.112;2023-04-30T08:00:56;102489.13;;;13.81;100.00
62031;BME280;62035;52.094;5.112;2023-04-30T08:03:23;102495.63;;;13.67;100.00
62031;BME280;62035;52.094;5.112;2023-04-30T08:05:51;102495.16;;;13.62;100.00
62031;BME280;62035;52.094;5.112;2023-04-30T08:08:19;102487.75;;;13.86;100.00
62031;BME280;62035;52.094;5.112;2023-04-30T08:10:47;102490.47;;;14.17;100.00
62031;BME280;62035;52.094;5.112;2023-04-30T08:13:14;102494.63;;;14.30;100.00
62031;BME280;62035;52.094;5.112;2023-04-30T08:15:42;102488.34;;;14.41;100.00
62031;BME280;62035;52.094;5.112;2023-04-30T08:18:11;102490.69;;;14.55;100.00
62031;BME280;62035;52.094;5.112;2023-04-30T08:20:38;102496.56;;;14.49;100.00
62031;BME280;62035;52.094;5.112;2023-04-30T08:23:06;102487.03;;;14.56;100.00
62031;BME280;62035;52.094;5.112;2023-04-30T08:25:34;102487.25;;;14.44;100.00
62031;BME280;62035;52.094;5.112;2023-04-30T08:28:01;102487.94;;;14.76;100.00
62031;BME280;62035;52.094;5.112;2023-04-30T08:30:29;102481.84;;;14.64;100.00
62031;BME280;62035;52.094;5.112;2023-04-30T08:32:57;102487.38;;;14.73;100.00
62031;BME280;62035;52.094;5.112;2023-04-30T08:35:26;102494.47;;;14.93;100.00
62031;BME280;62035;52.094;5.112;2023-04-30T08:37:54;102488.19;;;14.63;100.00
62031;BME280;62035;52.094;5.112;2023-04-30T08:40:22;102491.03;;;14.81;100.00
62031;BME280;62035;52.094;5.112;2023-04-30T08:42:56;102487.41;;;14.92;100.00
62031;BME280;62035;52.094;5.112;2023-04-30T08:45:31;102488.84;;;14.96;100.00
62031;BME280;62035;52.094;5.112;2023-04-30T08:47:59;102482.22;;;15.00;100.00
62031;BME280;62035;52.094;5.112;2023-04-30T08:50:29;102494.09;;;15.17;100.00
62031;BME280;62035;52.094;5.112;2023-04-30T08:52:57;102490.97;;;15.21;100.00
62031;BME280;62035;52.094;5.112;2023-04-30T08:55:27;102486.34;;;15.43;100.00
62031;BME280;62035;52.094;5.112;2023-04-30T08:57:56;102487.75;;;15.27;100.00
62031;BME280;62035;52.094;5.112;2023-04-30T09:00:23;102487.59;;;15.29;100.00
62031;BME280;62035;52.094;5.112;2023-04-30T09:02:52;102487.06;;;15.45;100.00
62031;BME280;62035;52.094;5.112;2023-04-30T09:05:19;102482.97;;;15.60;100.00
62031;BME280;62035;52.094;5.112;2023-04-30T09:07:48;102479.16;;;15.62;100.00
62031;BME280;62035;52.094;5.112;2023-04-30T09:10:17;102476.19;;;15.75;100.00
62031;BME280;62035;52.094;5.112;2023-04-30T09:12:57;102477.19;;;15.64;100.00
62031;BME280;62035;52.094;5.112;2023-04-30T09:15:26;102477.31;;;15.73;100.00
62031;BME280;62035;52.094;5.112;2023-04-30T09:18:09;102482.38;;;15.95;100.00
62031;BME280;62035;52.094;5.112;2023-04-30T09:20:38;102478.94;;;16.12;100.00
62031;BME280;62035;52.094;5.112;2023-04-30T09:23:22;102473.69;;;16.20;100.00
62031;BME280;62035;52.094;5.112;2023-04-30T09:25:50;102464.50;;;16.23;100.00
62031;BME280;62035;52.094;5.112;2023-04-30T09:28:19;102466.59;;;16.56;100.00
62031;BME280;62035;52.094;5.112;2023-04-30T09:30:50;102462.63;;;16.60;100.00
62031;BME280;62035;52.094;5.112;2023-04-30T09:33:19;102458.28;;;16.50;100.00
62031;BME280;62035;52.094;5.112;2023-04-30T09:35:46;102461.00;;;16.40;100.00
62031;BME280;62035;52.094;5.112;2023-04-30T09:38:28;102466.66;;;16.47;100.00
62031;BME280;62035;52.094;5.112;2023-04-30T09:40:58;102464.09;;;16.45;100.00
62031;BME280;62035;52.094;5.112;2023-04-30T09:43:26;102456.78;;;16.75;100.00
62031;BME280;62035;52.094;5.112;2023-04-30T09:45:57;102455.16;;;16.82;100.00
62031;BME280;62035;52.094;5.112;2023-04-30T09:48:26;102453.44;;;16.90;100.00
62031;BME280;62035;52.094;5.112;2023-04-30T09:50:54;102456.69;;;16.66;100.00
62031;BME280;62035;52.094;5.112;2023-04-30T09:53:22;102461.78;;;16.60;100.00
62031;BME280;62035;52.094;5.112;2023-04-30T09:55:51;102448.09;;;16.81;100.00
62031;BME280;62035;52.094;5.112;2023-04-30T09:58:19;102435.75;;;16.88;100.00
62031;BME280;62035;52.094;5.112;2023-04-30T10:00:48;102443.22;;;16.94;100.00
62031;BME280;62035;52.094;5.112;2023-04-30T10:03:19;102443.97;;;16.86;100.00
62031;BME280;62035;52.094;5.112;2023-04-30T10:05:50;102419.31;;;16.63;100.00
62031;BME280;62035;52.094;5.112;2023-04-30T10:08:24;102439.84;;;17.10;100.00
62031;BME280;62035;52.094;5.112;2023-04-30T10:10:58;102427.25;;;17.10;100.00
62031;BME280;62035;52.094;5.112;2023-04-30T10:13:31;102425.16;;;17.57;100.00
62031;BME280;62035;52.094;5.112;2023-04-30T10:16:07;102417.78;;;17.42;100.00
62031;BME280;62035;52.094;5.112;2023-04-30T10:18:45;102431.44;;;17.66;100.00
62031;BME280;62035;52.094;5.112;2023-04-30T10:21:15;102430.34;;;17.77;100.00
62031;BME280;62035;52.094;5.112;2023-04-30T10:23:45;102431.81;;;17.71;100.00
62031;BME280;62035;52.094;5.112;2023-04-30T10:26:14;102428.03;;;17.64;100.00
62031;BME280;62035;52.094;5.112;2023-04-30T10:28:45;102414.34;;;17.75;100.00
62031;BME280;62035;52.094;5.112;2023-04-30T10:31:16;102420.91;;;17.98;100.00
62031;BME280;62035;52.094;5.112;2023-04-30T10:33:53;102408.34;;;18.15;100.00
62031;BME280;62035;52.094;5.112;2023-04-30T10:36:32;102417.41;;;17.80;100.00
62031;BME280;62035;52.094;5.112;2023-04-30T10:39:06;102411.34;;;17.78;100.00
62031;BME280;62035;52.094;5.112;2023-04-30T10:41:35;102402.84;;;18.25;100.00
62031;BME280;62035;52.094;5.112;2023-04-30T10:44:03;102414.53;;;18.33;100.00
62031;BME280;62035;52.094;5.112;2023-04-30T10:46:34;102400.53;;;18.30;100.00
62031;BME280;62035;52.094;5.112;2023-04-30T10:49:02;102410.00;;;18.50;100.00
62031;BME280;62035;52.094;5.112;2023-04-30T10:51:54;102400.72;;;18.79;100.00
62031;BME280;62035;52.094;5.112;2023-04-30T10:54:26;102394.63;;;18.69;100.00
62031;BME280;62035;52.094;5.112;2023-04-30T10:57:09;102386.19;;;18.80;100.00
62031;BME280;62035;52.094;5.112;2023-04-30T10:59:41;102388.72;;;18.81;100.00
62031;BME280;62035;52.094;5.112;2023-04-30T11:02:13;102387.59;;;19.16;100.00
62031;BME280;62035;52.094;5.112;2023-04-30T11:05:07;102387.41;;;19.26;100.00
62031;BME280;62035;52.094;5.112;2023-04-30T11:07:36;102392.66;;;19.27;100.00
62031;BME280;62035;52.094;5.112;2023-04-30T11:10:13;102383.88;;;19.25;100.00
62031;BME280;62035;52.094;5.112;2023-04-30T11:12:46;102379.50;;;19.00;100.00
62031;BME280;62035;52.094;5.112;2023-04-30T11:15:17;102372.09;;;19.51;100.00
62031;BME280;62035;52.094;5.112;2023-04-30T11:17:48;102363.09;;;19.67;100.00
62031;BME280;62035;52.094;5.112;2023-04-30T11:20:19;102369.94;;;20.02;99.51
62031;BME280;62035;52.094;5.112;2023-04-30T11:23:06;102362.97;;;20.07;95.40
62031;BME280;62035;52.094;5.112;2023-04-30T11:25:39;102358.59;;;20.06;94.10
62031;BME280;62035;52.094;5.112;2023-04-30T11:28:12;102362.53;;;20.35;94.82
62031;BME280;62035;52.094;5.112;2023-04-30T11:30:50;102350.94;;;20.18;92.78
62031;BME280;62035;52.094;5.112;2023-04-30T11:33:19;102348.91;;;20.59;90.09
62031;BME280;62035;52.094;5.112;2023-04-30T11:35:47;102344.50;;;20.27;91.46
62031;BME280;62035;52.094;5.112;2023-04-30T11:38:19;102337.75;;;20.23;92.83
62031;BME280;62035;52.094;5.112;2023-04-30T11:40:49;102343.75;;;20.95;88.86
62031;BME280;62035;52.094;5.112;2023-04-30T11:43:26;102322.59;;;20.76;85.58
62031;BME280;62035;52.094;5.112;2023-04-30T11:46:03;102332.38;;;20.54;87.37
62031;BME280;62035;52.094;5.112;2023-04-30T11:48:33;102338.25;;;19.79;92.11
62031;BME280;62035;52.094;5.112;2023-04-30T11:51:03;102335.94;;;19.68;93.94
62031;BME280;62035;52.094;5.112;2023-04-30T11:53:32;102332.25;;;19.53;94.76
62031;BME280;62035;52.094;5.112;2023-04-30T11:56:03;102319.81;;;20.38;90.18
62031;BME280;62035;52.094;5.112;2023-04-30T11:58:36;102309.16;;;21.43;81.04
62031;BME280;62035;52.094;5.112;2023-04-30T12:01:06;102305.72;;;21.93;75.64
62031;BME280;62035;52.094;5.112;2023-04-30T12:03:46;102303.72;;;22.31;72.35
62031;BME280;62035;52.094;5.112;2023-04-30T12:06:21;102314.63;;;22.95;68.44
62031;BME280;62035;52.094;5.112;2023-04-30T12:08:51;102309.38;;;22.72;67.70
62031;BME280;62035;52.094;5.112;2023-04-30T12:11:20;102297.53;;;22.37;69.92
62031;BME280;62035;52.094;5.112;2023-04-30T12:13:52;102313.44;;;23.04;65.22
62031;BME280;62035;52.094;5.112;2023-04-30T12:16:22;102300.16;;;22.52;66.81
62031;BME280;62035;52.094;5.112;2023-04-30T12:18:50;102304.75;;;21.27;72.17
62031;BME280;62035;52.094;5.112;2023-04-30T12:21:19;102304.56;;;21.28;71.37
62031;BME280;62035;52.094;5.112;2023-04-30T12:23:48;102302.25;;;22.14;67.62
62031;BME280;62035;52.094;5.112;2023-04-30T12:26:16;102293.53;;;22.76;64.06
62031;BME280;62035;52.094;5.112;2023-04-30T12:28:46;102287.22;;;23.80;58.35
62031;BME280;62035;52.094;5.112;2023-04-30T12:31:17;102284.78;;;24.46;56.09
62031;BME280;62035;52.094;5.112;2023-04-30T12:33:53;102291.13;;;23.37;59.49
62031;BME280;62035;52.094;5.112;2023-04-30T12:36:27;102283.22;;;24.24;56.62
62031;BME280;62035;52.094;5.112;2023-04-30T12:39:01;102295.47;;;23.93;53.77
62031;BME280;62035;52.094;5.112;2023-04-30T12:41:30;102279.31;;;24.40;52.18
62031;BME280;62035;52.094;5.112;2023-04-30T12:44:19;102278.38;;;25.13;49.98
62031;BME280;62035;52.094;5.112;2023-04-30T12:46:51;102279.41;;;25.06;48.05
62031;BME280;62035;52.094;5.112;2023-04-30T12:49:22;102275.63;;;24.06;50.16
62031;BME280;62035;52.094;5.112;2023-04-30T12:51:51;102268.91;;;24.89;49.08
62031;BME280;62035;52.094;5.112;2023-04-30T12:54:26;102269.66;;;25.63;46.27
62031;BME280;62035;52.094;5.112;2023-04-30T12:56:58;102270.91;;;25.73;43.39
62031;BME280;62035;52.094;5.112;2023-04-30T12:59:28;102264.28;;;25.30;45.55